Time;durP1;ratioP1;P1;durP2;ratioP2;P2;SDS_P1;SDS_P2;PMS_P1;PMS_P2;Temp;Humidity;BMP_temperature;BMP_pressure;BME280_temperature;BME280_humidity;BME280_pressure;Samples;Min_cycle;Max_cycle;Signal;HPM_P1;HPM_P2
2022/07/25 00:00:46;;;;;;;;;16.25;16.25;;;;;27.09;41.35;100607.97;4901981;29;45501;-56
2022/07/25 00:03:11;;;;;;;;;12.75;12.00;;;;;27.10;41.31;100609.66;4901567;29;46567;-57
2022/07/25 00:05:37;;;;;;;;;14.50;13.00;;;;;27.10;41.50;100596.38;4901440;29;48543;-56
2022/07/25 00:08:02;;;;;;;;;16.50;15.00;;;;;27.10;41.38;100596.38;4901400;29;45401;-57
2022/07/25 00:10:28;;;;;;;;;14.50;12.50;;;;;27.11;41.14;100591.91;4901848;29;45425;-56
2022/07/25 00:12:53;;;;;;;;;11.25;11.25;;;;;27.09;41.37;100581.38;4901202;28;45545;-57
2022/07/25 00:15:18;;;;;;;;;14.25;13.75;;;;;27.10;41.18;100583.06;4901266;28;45287;-57
2022/07/25 00:17:44;;;;;;;;;15.75;12.75;;;;;27.09;41.37;100581.38;4901478;29;45380;-56
2022/07/25 00:20:09;;;;;;;;;14.25;11.75;;;;;27.10;41.24;100583.06;4901664;28;45644;-58
2022/07/25 00:22:35;;;;;;;;;12.25;12.25;;;;;27.10;41.15;100571.59;4901200;29;46069;-56
2022/07/25 00:25:00;;;;;;;;;12.75;12.75;;;;;27.09;41.28;100570.75;4900817;29;49057;-55
2022/07/25 00:27:26;;;;;;;;;13.00;11.75;;;;;27.10;41.50;100567.13;4901273;28;45323;-53
2022/07/25 00:29:51;;;;;;;;;14.75;13.75;;;;;27.11;41.39;100570.63;4901518;29;45642;-58
2022/07/25 00:32:16;;;;;;;;;16.00;14.50;;;;;27.11;41.46;100567.97;4900805;29;45518;-56
2022/07/25 00:34:42;;;;;;;;;16.75;15.25;;;;;27.10;41.47;100572.44;4901466;28;45231;-54
2022/07/25 00:37:07;;;;;;;;;12.25;12.25;;;;;27.10;41.40;100575.09;4900773;29;45289;-56
2022/07/25 00:39:33;;;;;;;;;11.00;11.00;;;;;27.10;41.67;100572.44;4901587;29;45340;-58
2022/07/25 00:41:58;;;;;;;;;14.00;12.25;;;;;27.10;41.62;100559.13;4900895;29;45945;-57
2022/07/25 00:44:29;;;;;;;;;10.50;9.50;;;;;27.11;41.41;100557.34;4900869;29;48126;-55
2022/07/25 00:46:55;;;;;;;;;13.00;11.25;;;;;27.11;41.45;100558.16;4883953;29;45302;-55
2022/07/25 00:49:21;;;;;;;;;11.75;11.75;;;;;27.10;41.77;100559.13;4901239;28;45462;-55
2022/07/25 00:51:48;;;;;;;;;13.25;11.50;;;;;27.10;41.41;100556.47;4900826;29;46749;-55
2022/07/25 00:54:14;;;;;;;;;14.00;14.00;;;;;27.10;41.68;100553.81;4900591;29;45789;-53
2022/07/25 00:56:39;;;;;;;;;18.25;13.00;;;;;27.11;41.48;100552.00;4901293;29;45270;-53
2022/07/25 00:59:05;;;;;;;;;16.75;14.00;;;;;27.10;41.67;100555.66;4900852;29;45311;-56
2022/07/25 01:01:31;;;;;;;;;17.00;13.25;;;;;27.11;41.41;100549.34;4900644;29;46816;-58
2022/07/25 01:03:56;;;;;;;;;15.75;12.25;;;;;27.11;41.63;100552.00;4900530;29;45395;-55
2022/07/25 01:06:22;;;;;;;;;14.75;14.25;;;;;27.11;41.49;100552.00;4900833;28;45456;-55
2022/07/25 01:08:48;;;;;;;;;13.75;12.25;;;;;27.09;41.37;100552.13;4901008;29;45548;-55
2022/07/25 01:11:14;;;;;;;;;13.00;13.00;;;;;27.10;41.47;100567.13;4900485;29;45445;-55
2022/07/25 01:13:39;;;;;;;;;14.25;13.00;;;;;27.10;41.80;100580.41;4900930;29;45622;-55
2022/07/25 01:16:05;;;;;;;;;12.00;9.50;;;;;27.09;41.81;100594.69;4900389;29;45426;-56
2022/07/25 01:18:30;;;;;;;;;11.75;11.50;;;;;27.10;42.03;100575.09;4900868;29;45307;-55
2022/07/25 01:20:56;;;;;;;;;13.25;11.25;;;;;27.09;41.75;100578.72;4900198;29;45518;-52
2022/07/25 01:23:22;;;;;;;;;12.50;12.00;;;;;27.09;42.05;100568.09;4900378;29;45345;-54
2022/07/25 01:25:47;;;;;;;;;13.50;13.50;;;;;27.10;41.61;100577.75;4900430;28;45419;-55
2022/07/25 01:28:12;;;;;;;;;12.25;11.75;;;;;27.10;41.85;100563.63;4900736;28;45214;-54
2022/07/25 01:30:38;;;;;;;;;17.50;15.50;;;;;27.11;41.67;100574.13;4900431;29;45262;-56
2022/07/25 01:33:03;;;;;;;;;14.00;13.75;;;;;27.11;41.91;100573.28;4900096;29;45681;-56
2022/07/25 01:35:28;;;;;;;;;12.25;11.75;;;;;27.11;41.85;100575.94;4900465;28;45717;-57
2022/07/25 01:37:54;;;;;;;;;13.75;12.50;;;;;27.11;41.67;100578.59;4900380;29;45559;-54
2022/07/25 01:40:19;;;;;;;;;11.25;11.25;;;;;27.09;41.77;100568.09;4899994;29;46578;-56
2022/07/25 01:42:45;;;;;;;;;11.50;11.25;;;;;27.10;41.60;100572.44;4900198;28;45238;-57
2022/07/25 01:45:11;;;;;;;;;15.50;12.00;;;;;27.10;41.84;100571.59;4900294;29;45260;-57
2022/07/25 01:47:37;;;;;;;;;12.00;12.00;;;;;27.09;41.16;100570.75;4899776;29;45379;-54
2022/07/25 01:50:04;;;;;;;;;12.00;12.00;;;;;27.08;41.40;100563.75;4899727;29;46306;-57
2022/07/25 01:52:29;;;;;;;;;12.25;9.50;;;;;27.09;41.83;100561.94;4900074;29;45284;-58
2022/07/25 01:54:55;;;;;;;;;13.00;12.00;;;;;27.09;41.56;100561.94;4899892;29;45423;-55
2022/07/25 01:57:22;;;;;;;;;9.50;9.50;;;;;27.08;41.60;100566.41;4900415;29;45475;-55
2022/07/25 01:59:47;;;;;;;;;11.75;11.25;;;;;27.08;41.57;100561.06;4899895;29;45719;-57
2022/07/25 02:02:13;;;;;;;;;11.25;10.25;;;;;27.05;41.62;100564.03;4899951;29;45223;-57
2022/07/25 02:04:38;;;;;;;;;11.75;11.25;;;;;27.07;41.51;100566.53;4900171;29;45184;-57
2022/07/25 02:07:03;;;;;;;;;14.00;12.50;;;;;27.06;41.76;100563.06;4900016;28;45202;-56
2022/07/25 02:09:29;;;;;;;;;11.25;10.50;;;;;27.06;41.50;100565.72;4899649;28;45604;-53
2022/07/25 02:11:54;;;;;;;;;9.50;9.50;;;;;27.05;41.50;100564.03;4899477;29;45490;-56
2022/07/25 02:14:20;;;;;;;;;10.00;10.00;;;;;27.05;41.55;100558.72;4900009;28;45441;-54
2022/07/25 02:16:45;;;;;;;;;12.00;11.75;;;;;27.04;41.42;100554.38;4900108;29;45650;-54
2022/07/25 02:19:10;;;;;;;;;10.75;10.75;;;;;27.02;41.64;100558.97;4899630;29;46551;-54
2022/07/25 02:21:36;;;;;;;;;11.00;10.25;;;;;27.01;41.53;100551.97;4899674;29;45470;-54
2022/07/25 02:24:02;;;;;;;;;13.00;9.50;;;;;27.00;41.73;100553.81;4899371;29;45992;-53
2022/07/25 02:26:27;;;;;;;;;11.75;9.00;;;;;27.00;41.55;100555.59;4899817;29;45380;-52
2022/07/25 02:28:53;;;;;;;;;12.00;11.00;;;;;26.99;41.67;100556.56;4899290;29;45360;-54
2022/07/25 02:31:18;;;;;;;;;15.50;12.50;;;;;26.98;41.72;100557.53;4899356;29;45240;-54
2022/07/25 02:33:44;;;;;;;;;11.00;11.00;;;;;26.97;41.75;100566.50;4899916;29;45444;-52
2022/07/25 02:36:10;;;;;;;;;13.00;10.50;;;;;26.93;42.01;100554.47;4899798;29;45526;-55
2022/07/25 02:38:36;;;;;;;;;14.00;12.50;;;;;26.93;41.83;100560.59;4899304;29;45401;-50
2022/07/25 02:41:02;;;;;;;;;9.25;9.00;;;;;26.90;41.44;100560.88;4897990;29;45779;-54
2022/07/25 02:43:27;;;;;;;;;10.25;9.25;;;;;26.89;41.84;100561.00;4899541;29;45249;-57
2022/07/25 02:45:53;;;;;;;;;10.50;9.00;;;;;26.85;41.98;100558.63;4899574;29;45226;-51
2022/07/25 02:48:18;;;;;;;;;8.50;8.50;;;;;26.83;41.91;100557.06;4898984;29;45393;-54
2022/07/25 02:50:44;;;;;;;;;12.25;9.25;;;;;26.81;41.55;100557.22;4899436;29;45727;-53
2022/07/25 02:53:09;;;;;;;;;8.25;8.25;;;;;26.78;41.82;100561.97;4899439;29;45372;-56
2022/07/25 02:55:34;;;;;;;;;9.00;9.00;;;;;26.78;41.58;100562.78;4899348;29;45562;-54
2022/07/25 02:58:00;;;;;;;;;7.00;6.25;;;;;26.76;41.48;100564.72;4898832;29;45356;-52
2022/07/25 03:00:26;;;;;;;;;9.00;7.00;;;;;26.74;41.64;100569.31;4902404;28;45313;-53
2022/07/25 03:02:51;;;;;;;;;8.00;8.00;;;;;26.71;41.46;100566.94;4902626;28;45439;-51
2022/07/25 03:05:17;;;;;;;;;7.75;7.75;;;;;26.69;41.43;100560.91;4902455;29;45391;-55
2022/07/25 03:07:43;;;;;;;;;6.75;6.50;;;;;26.67;41.20;100557.53;4902732;28;46686;-52
2022/07/25 03:10:11;;;;;;;;;6.00;6.00;;;;;26.65;40.84;100567.44;4902347;28;45865;-51
2022/07/25 03:12:38;;;;;;;;;7.00;5.50;;;;;26.60;40.95;100565.19;4902662;29;45239;-53
2022/07/25 03:15:05;;;;;;;;;3.75;3.75;;;;;26.59;40.98;100568.00;4902597;28;45299;-50
2022/07/25 03:17:33;;;;;;;;;6.50;6.50;;;;;26.54;40.81;100566.56;4902141;28;47661;-52
2022/07/25 03:19:59;;;;;;;;;7.00;5.50;;;;;26.50;40.97;100570.47;4902073;29;45717;-55
2022/07/25 03:22:24;;;;;;;;;6.50;5.75;;;;;26.48;40.85;100572.41;4901624;28;45467;-53
2022/07/25 03:24:50;;;;;;;;;5.00;5.00;;;;;26.46;40.77;100574.34;4902466;29;45319;-53
2022/07/25 03:27:16;;;;;;;;;4.50;4.50;;;;;26.43;40.51;100571.94;4901833;29;45467;-53
2022/07/25 03:29:41;;;;;;;;;4.00;4.00;;;;;26.40;40.51;100574.88;4902593;29;45238;-52
2022/07/25 03:32:07;;;;;;;;;4.75;4.75;;;;;26.37;40.42;100583.09;4901970;28;45283;-51
2022/07/25 03:34:33;;;;;;;;;7.00;5.25;;;;;26.34;40.11;100575.38;4902460;29;45202;-54
2022/07/25 03:36:59;;;;;;;;;6.75;6.75;;;;;26.29;40.24;100586.41;4901734;28;46763;-53
2022/07/25 03:39:25;;;;;;;;;4.75;3.00;;;;;26.27;39.83;100592.81;4902086;29;45380;-51
2022/07/25 03:41:51;;;;;;;;;3.00;3.00;;;;;26.23;39.96;100590.41;4902205;28;45336;-53
2022/07/25 03:44:17;;;;;;;;;3.75;3.75;;;;;26.23;40.03;100600.22;4902051;29;45481;-52
2022/07/25 03:46:43;;;;;;;;;4.25;4.00;;;;;26.19;39.78;100599.59;4902208;29;45598;-50
2022/07/25 03:49:08;;;;;;;;;4.50;4.00;;;;;26.17;39.79;100598.06;4901651;28;45375;-50
2022/07/25 03:51:33;;;;;;;;;4.00;3.00;;;;;26.16;40.00;100607.84;4901819;29;47156;-53
2022/07/25 03:54:02;;;;;;;;;4.25;3.00;;;;;26.13;39.51;100616.06;4901865;29;45315;-53
2022/07/25 03:56:34;;;;;;;;;5.00;3.00;;;;;26.11;39.77;100618.00;4901689;28;47220;-53
2022/07/25 03:58:59;;;;;;;;;4.75;3.25;;;;;26.07;39.67;100614.72;4901434;28;45793;-52
2022/07/25 04:01:25;;;;;;;;;4.00;2.25;;;;;26.02;39.56;100611.59;4901898;28;45276;-56
2022/07/25 04:03:50;;;;;;;;;2.50;2.50;;;;;26.02;39.68;100624.03;4902095;29;45406;-53
2022/07/25 04:06:16;;;;;;;;;3.00;3.00;;;;;26.00;39.07;100624.19;4901231;29;46256;-53
2022/07/25 04:08:41;;;;;;;;;3.25;2.00;;;;;25.97;39.16;100621.78;4901904;29;45401;-57
2022/07/25 04:11:06;;;;;;;;;5.00;2.50;;;;;25.96;39.13;100636.00;4900931;29;45285;-56
2022/07/25 04:13:32;;;;;;;;;3.00;3.00;;;;;25.92;39.25;100622.16;4901857;29;45531;-56
2022/07/25 04:15:57;;;;;;;;;2.75;2.00;;;;;25.91;39.13;100617.81;4901070;28;45313;-54
2022/07/25 04:18:22;;;;;;;;;3.00;3.00;;;;;25.89;38.85;100613.59;4901526;29;45364;-49
2022/07/25 04:20:48;;;;;;;;;4.00;2.75;;;;;25.86;39.40;100624.47;4901692;28;45204;-52
2022/07/25 04:23:13;;;;;;;;;3.50;2.00;;;;;25.84;39.12;100635.22;4901648;29;45241;-52
2022/07/25 04:25:38;;;;;;;;;2.50;2.50;;;;;25.81;38.68;100627.50;4901309;29;46305;-51
2022/07/25 04:28:04;;;;;;;;;3.50;3.00;;;;;25.79;38.98;100634.72;4899775;29;45250;-53
2022/07/25 04:30:29;;;;;;;;;3.75;2.00;;;;;25.77;39.32;100634.00;4900553;28;45402;-48
2022/07/25 04:32:55;;;;;;;;;2.00;2.00;;;;;25.74;39.49;100643.06;4900183;28;45376;-48
2022/07/25 04:35:21;;;;;;;;;2.25;2.00;;;;;25.72;39.34;100644.16;4901071;29;46229;-52
2022/07/25 04:37:46;;;;;;;;;2.00;2.00;;;;;25.68;39.49;100640.94;4899781;29;46164;-53
2022/07/25 04:40:11;;;;;;;;;1.75;1.75;;;;;25.66;39.27;100650.81;4901393;28;45403;-53
2022/07/25 04:42:37;;;;;;;;;2.25;1.75;;;;;25.63;39.48;100651.88;4901394;28;45557;-56
2022/07/25 04:45:03;;;;;;;;;4.00;2.00;;;;;25.62;39.45;100649.38;4900762;29;46304;-56
2022/07/25 04:47:28;;;;;;;;;3.00;1.75;;;;;25.60;40.34;100653.94;4901123;29;45715;-55
2022/07/25 04:49:54;;;;;;;;;2.00;2.00;;;;;25.56;40.02;100648.03;4900886;28;45398;-52
2022/07/25 04:52:19;;;;;;;;;1.75;1.75;;;;;25.55;39.96;100653.50;4901163;29;45468;-54
2022/07/25 04:54:45;;;;;;;;;3.00;1.75;;;;;25.54;40.27;100657.94;4900225;28;45540;-51
2022/07/25 04:57:10;;;;;;;;;2.00;2.00;;;;;25.54;40.27;100654.44;4901433;29;45767;-53
2022/07/25 04:59:35;;;;;;;;;1.00;1.00;;;;;25.55;40.78;100653.50;4901373;29;45815;-55
2022/07/25 05:02:01;;;;;;;;;3.50;2.00;;;;;25.57;41.20;100652.38;4900889;29;45513;-55
2022/07/25 05:04:27;;;;;;;;;2.00;2.00;;;;;25.60;41.00;100651.28;4900839;29;46419;-55
2022/07/25 05:06:52;;;;;;;;;3.00;3.00;;;;;25.61;41.05;100653.84;4900621;28;45291;-53
2022/07/25 05:09:18;;;;;;;;;3.00;1.00;;;;;25.67;41.76;100656.97;4899645;29;45289;-56
2022/07/25 05:11:43;;;;;;;;;2.00;2.00;;;;;25.67;41.37;100655.16;4901335;28;45482;-55
2022/07/25 05:14:08;;;;;;;;;3.00;2.25;;;;;25.72;41.56;100655.63;4900869;28;46485;-55
2022/07/25 05:16:34;;;;;;;;;1.50;1.50;;;;;25.74;41.32;100651.03;4900597;29;45358;-51
2022/07/25 05:18:59;;;;;;;;;3.00;1.75;;;;;25.76;41.73;100662.38;4900616;29;45271;-54
2022/07/25 05:21:24;;;;;;;;;1.00;1.00;;;;;25.79;41.16;100666.59;4900398;28;45595;-55
2022/07/25 05:23:50;;;;;;;;;1.50;1.50;;;;;25.80;41.84;100662.97;4899362;29;46967;-55
2022/07/25 05:26:15;;;;;;;;;2.00;2.00;;;;;25.81;41.70;100672.63;4900956;29;45428;-53
2022/07/25 05:28:40;;;;;;;;;2.00;2.00;;;;;25.82;41.65;100674.31;4900524;28;45865;-55
2022/07/25 05:31:06;;;;;;;;;1.00;1.00;;;;;25.85;41.92;100675.88;4900824;29;45352;-50
2022/07/25 05:33:32;;;;;;;;;2.00;2.00;;;;;25.87;41.62;100680.09;4900328;29;46593;-49
2022/07/25 05:35:58;;;;;;;;;3.00;3.00;;;;;25.88;41.51;100681.78;4900015;28;45351;-50
2022/07/25 05:38:23;;;;;;;;;4.00;3.00;;;;;25.89;41.66;100688.78;4900575;29;45399;-51
2022/07/25 05:40:50;;;;;;;;;2.00;1.25;;;;;25.90;41.83;100692.28;4900219;29;45398;-49
2022/07/25 05:43:16;;;;;;;;;1.75;1.75;;;;;25.92;41.81;100683.22;4900557;28;46455;-47
2022/07/25 05:45:42;;;;;;;;;6.00;2.00;;;;;25.95;41.86;100694.56;4900129;28;45227;-51
2022/07/25 05:48:08;;;;;;;;;2.00;2.00;;;;;25.95;41.50;100691.91;4900398;29;45209;-52
2022/07/25 05:50:35;;;;;;;;;3.75;1.75;;;;;25.96;41.59;100688.28;4900427;29;45181;-52
2022/07/25 05:53:01;;;;;;;;;3.00;3.00;;;;;25.97;41.73;100687.28;4899818;29;45376;-53
2022/07/25 05:55:26;;;;;;;;;2.00;2.00;;;;;25.97;42.03;100687.28;4900042;29;45524;-51
2022/07/25 05:57:52;;;;;;;;;2.00;2.00;;;;;25.98;41.77;100697.81;4900005;29;45426;-52
2022/07/25 06:00:17;;;;;;;;;2.25;2.25;;;;;25.99;42.15;100704.81;4900305;29;45711;-53
2022/07/25 06:02:43;;;;;;;;;1.50;1.50;;;;;26.00;41.93;100706.50;4899865;28;46245;-48
2022/07/25 06:05:08;;;;;;;;;2.25;2.00;;;;;26.01;41.40;100702.88;4899733;28;45335;-49
2022/07/25 06:07:34;;;;;;;;;2.25;2.25;;;;;25.99;41.72;100703.94;4900093;29;45366;-50
2022/07/25 06:09:59;;;;;;;;;3.00;3.00;;;;;26.01;41.93;100704.69;4899857;29;45595;-50
2022/07/25 06:12:24;;;;;;;;;1.25;1.25;;;;;26.03;42.04;100705.41;4899828;29;45587;-55
2022/07/25 06:14:50;;;;;;;;;3.25;2.00;;;;;26.03;41.54;100703.56;4899504;29;45387;-48
2022/07/25 06:17:15;;;;;;;;;2.75;1.50;;;;;26.04;41.87;100717.72;4900340;29;45480;-49
2022/07/25 06:19:41;;;;;;;;;2.00;2.00;;;;;26.05;41.48;100714.09;4899796;29;45432;-49
2022/07/25 06:22:08;;;;;;;;;2.25;2.25;;;;;26.06;41.98;100727.25;4899625;28;45364;-54
2022/07/25 06:24:34;;;;;;;;;2.00;2.00;;;;;26.05;41.76;100722.06;4882645;29;45648;-52
2022/07/25 06:26:59;;;;;;;;;2.00;2.00;;;;;26.08;42.16;100724.44;4899280;29;45506;-52
2022/07/25 06:29:24;;;;;;;;;5.00;1.75;;;;;26.08;41.82;100733.28;4900087;29;45252;-49
2022/07/25 06:31:50;;;;;;;;;2.00;2.00;;;;;26.10;41.96;100732.34;4899284;29;46305;-49
2022/07/25 06:34:15;;;;;;;;;3.25;2.00;;;;;26.08;41.79;100721.78;4899329;29;45443;-52
2022/07/25 06:36:41;;;;;;;;;3.00;1.50;;;;;26.09;41.93;100736.75;4899610;29;45338;-53
2022/07/25 06:39:06;;;;;;;;;2.25;2.25;;;;;26.10;41.91;100735.81;4899693;29;45536;-50
2022/07/25 06:41:31;;;;;;;;;3.25;3.25;;;;;26.09;41.78;100736.75;4899178;29;51433;-49
2022/07/25 06:43:57;;;;;;;;;2.00;2.00;;;;;26.10;41.82;100735.81;4899106;29;45365;-51
2022/07/25 06:46:22;;;;;;;;;2.25;2.25;;;;;26.11;41.65;100731.38;4899324;29;45415;-49
2022/07/25 06:48:47;;;;;;;;;3.50;2.50;;;;;26.12;41.64;100736.56;4899697;29;45526;-48
2022/07/25 06:51:13;;;;;;;;;3.00;2.00;;;;;26.12;41.88;100741.88;4898604;29;64248;-48
2022/07/25 06:53:38;;;;;;;;;3.50;3.00;;;;;26.11;41.71;100740.19;4899266;29;45435;-49
2022/07/25 06:56:04;;;;;;;;;3.00;3.00;;;;;26.12;42.06;100749.84;4899245;29;45317;-50
2022/07/25 06:58:29;;;;;;;;;2.00;2.00;;;;;26.13;41.93;100748.88;4899541;29;45430;-55
2022/07/25 07:00:55;;;;;;;;;4.00;3.00;;;;;26.15;42.05;100757.56;4898906;29;45534;-51
2022/07/25 07:03:20;;;;;;;;;3.00;3.00;;;;;26.16;42.28;100753.94;4899236;29;45360;-55
2022/07/25 07:05:45;;;;;;;;;3.00;2.75;;;;;26.16;42.38;100763.72;4899284;29;45420;-53
2022/07/25 07:08:11;;;;;;;;;2.50;2.50;;;;;26.17;42.13;100760.09;4899408;29;45602;-53
2022/07/25 07:10:36;;;;;;;;;2.75;2.25;;;;;26.17;42.66;100763.59;4898930;29;47330;-52
2022/07/25 07:13:14;;;;;;;;;3.25;2.00;;;;;26.18;42.41;100767.91;4898718;29;45478;-52
2022/07/25 07:15:44;;;;;;;;;5.00;4.00;;;;;26.20;42.90;100766.00;4898138;29;45343;-56
2022/07/25 07:18:09;;;;;;;;;2.00;2.00;;;;;26.22;42.33;100773.84;4899150;29;45767;-55
2022/07/25 07:20:34;;;;;;;;;4.00;2.25;;;;;26.22;42.95;100774.69;4899018;29;45591;-54
2022/07/25 07:23:00;;;;;;;;;3.00;3.00;;;;;26.23;42.21;100770.22;4898730;29;45396;-56
2022/07/25 07:25:26;;;;;;;;;2.25;2.25;;;;;26.24;43.12;100770.09;4898999;29;45519;-56
2022/07/25 07:27:51;;;;;;;;;2.75;2.75;;;;;26.25;42.50;100778.91;4898772;29;45331;-54
2022/07/25 07:30:17;;;;;;;;;5.00;3.25;;;;;26.26;42.90;100779.75;4898927;29;46325;-54
2022/07/25 07:32:43;;;;;;;;;3.50;2.50;;;;;26.27;42.46;100773.47;4898582;29;45566;-56
2022/07/25 07:35:10;;;;;;;;;3.00;3.00;;;;;26.27;42.67;100776.13;4899000;28;45241;-56
2022/07/25 07:37:35;;;;;;;;;3.25;3.00;;;;;26.28;42.73;100783.13;4899068;29;45431;-55
2022/07/25 07:40:02;;;;;;;;;4.00;3.00;;;;;26.28;42.56;100785.78;4898451;28;45494;-54
2022/07/25 07:42:36;;;;;;;;;3.00;3.00;;;;;26.29;42.41;100790.16;4898701;29;45641;-54
2022/07/25 07:45:01;;;;;;;;;3.25;2.50;;;;;26.28;42.62;100783.97;4898503;29;45452;-55
2022/07/25 07:47:27;;;;;;;;;3.00;2.25;;;;;26.29;42.75;100784.81;4901950;29;45617;-54
2022/07/25 07:49:52;;;;;;;;;2.25;2.25;;;;;26.27;42.63;100778.78;4901471;29;47536;-56
2022/07/25 07:52:17;;;;;;;;;3.00;3.00;;;;;26.28;42.91;100788.44;4902261;29;45412;-55
2022/07/25 07:57:26;;;;;;;;;3.00;2.50;;;;;26.29;42.79;100793.63;4902141;28;45354;-57
2022/07/25 07:59:52;;;;;;;;;2.75;2.75;;;;;26.31;42.66;100796.16;4901404;28;45361;-56
2022/07/25 08:02:18;;;;;;;;;3.00;3.00;;;;;26.31;42.86;100793.50;4901823;29;45432;-55
2022/07/25 08:04:43;;;;;;;;;5.50;3.00;;;;;26.31;42.98;100802.31;4884366;29;45434;-56
2022/07/25 08:07:09;;;;;;;;;2.50;2.50;;;;;26.32;42.46;100792.53;4901817;29;45297;-56
2022/07/25 08:09:35;;;;;;;;;2.25;2.25;;;;;26.32;42.60;100800.50;4901482;29;45440;-57
2022/07/25 08:12:00;;;;;;;;;3.00;3.00;;;;;26.31;42.91;100799.66;4901063;29;51459;-52
2022/07/25 08:14:25;;;;;;;;;2.75;2.50;;;;;26.33;42.98;100804.84;4901705;28;45354;-54
2022/07/25 08:16:51;;;;;;;;;2.25;2.25;;;;;26.31;43.09;100802.31;4901886;29;45323;-53
2022/07/25 08:19:17;;;;;;;;;3.00;3.00;;;;;26.35;42.65;100811.72;4901641;29;47470;-53
2022/07/25 08:21:42;;;;;;;;;2.00;2.00;;;;;26.35;43.15;100816.19;4901313;29;45420;-57
2022/07/25 08:24:07;;;;;;;;;1.50;1.50;;;;;26.36;42.87;100812.59;4901599;29;45348;-53
2022/07/25 08:26:35;;;;;;;;;2.00;2.00;;;;;26.36;43.31;100808.09;4901391;29;45578;-56
2022/07/25 08:29:01;;;;;;;;;1.75;1.75;;;;;26.37;43.29;100816.94;4900650;28;46676;-56
2022/07/25 08:31:27;;;;;;;;;3.00;2.00;;;;;26.38;42.76;100813.31;4901287;29;45434;-55
2022/07/25 08:33:52;;;;;;;;;2.50;2.00;;;;;26.38;43.22;100810.66;4901490;29;45339;-53
2022/07/25 08:36:17;;;;;;;;;3.00;3.00;;;;;26.38;42.87;100808.00;4884900;29;45545;-54
2022/07/25 08:38:43;;;;;;;;;2.25;2.00;;;;;26.36;42.94;100796.63;4900637;29;46685;-57
2022/07/25 08:41:08;;;;;;;;;2.00;2.00;;;;;26.40;43.00;100808.72;4884202;29;45491;-53
2022/07/25 08:43:35;;;;;;;;;3.75;2.00;;;;;26.42;43.38;100811.25;4899913;29;45414;-54
2022/07/25 08:46:03;;;;;;;;;1.50;1.50;;;;;26.42;43.03;100816.56;4901135;29;45280;-54
2022/07/25 08:48:29;;;;;;;;;3.00;1.00;;;;;26.42;42.82;100817.38;4901065;28;45521;-55
2022/07/25 08:50:56;;;;;;;;;1.25;1.25;;;;;26.43;43.12;100821.72;4900878;28;45404;-56
2022/07/25 08:53:21;;;;;;;;;1.50;1.50;;;;;26.44;42.96;100820.75;4901504;29;45443;-54
2022/07/25 08:55:47;;;;;;;;;3.75;2.00;;;;;26.44;43.56;100817.28;4900916;29;45383;-58
2022/07/25 08:58:14;;;;;;;;;2.25;2.25;;;;;26.46;43.10;100821.50;4900623;28;46285;-57
2022/07/25 09:00:40;;;;;;;;;3.00;3.00;;;;;26.45;43.03;100822.47;4901139;29;45312;-56
2022/07/25 09:03:06;;;;;;;;;4.00;2.00;;;;;26.46;43.01;100821.50;4901036;28;45317;-56
2022/07/25 09:05:32;;;;;;;;;2.25;2.25;;;;;26.48;43.21;100826.66;4901085;29;45575;-57
2022/07/25 09:08:06;;;;;;;;;2.00;2.00;;;;;26.49;43.50;100826.56;4900482;29;45569;-55
2022/07/25 09:10:32;;;;;;;;;2.25;2.25;;;;;26.49;43.18;100823.91;4899478;29;45605;-53
2022/07/25 09:13:04;;;;;;;;;1.25;1.25;;;;;26.49;43.43;100831.88;4900618;28;45174;-55
2022/07/25 09:15:32;;;;;;;;;4.25;3.00;;;;;26.50;43.32;100825.59;4900971;29;45531;-53
2022/07/25 09:18:00;;;;;;;;;3.25;2.00;;;;;26.51;43.47;100831.75;4900451;28;45690;-54
2022/07/25 09:20:41;;;;;;;;;2.00;2.00;;;;;26.52;43.15;100834.25;4900706;28;45341;-53
2022/07/25 09:23:07;;;;;;;;;2.00;2.00;;;;;26.54;43.67;100842.13;4900864;29;45270;-56
2022/07/25 09:25:33;;;;;;;;;2.00;2.00;;;;;26.55;43.49;100846.47;4900643;29;45542;-56
2022/07/25 09:28:12;;;;;;;;;5.00;1.50;;;;;26.57;43.05;100847.19;4898811;29;45703;-59
2022/07/25 09:30:39;;;;;;;;;2.00;2.00;;;;;26.58;43.28;100843.56;4899248;29;45981;-56
2022/07/25 09:33:04;;;;;;;;;2.25;2.00;;;;;26.59;43.15;100847.06;4900339;29;45459;-59
2022/07/25 09:35:32;;;;;;;;;3.50;2.00;;;;;26.59;43.39;100847.06;4900489;29;45523;-53
2022/07/25 09:38:12;;;;;;;;;2.00;2.00;;;;;26.61;43.30;100853.13;4899795;28;45281;-57
2022/07/25 09:40:38;;;;;;;;;1.00;1.00;;;;;26.62;43.29;100852.16;4900259;29;45428;-53
2022/07/25 09:43:04;;;;;;;;;2.00;2.00;;;;;26.63;43.27;100852.00;4900092;28;45451;-55
2022/07/25 09:45:29;;;;;;;;;2.00;2.00;;;;;26.64;43.46;100859.03;4900568;28;45377;-55
2022/07/25 09:48:00;;;;;;;;;1.00;1.00;;;;;26.66;43.39;100864.19;4900125;28;45416;-56
2022/07/25 09:50:30;;;;;;;;;3.50;2.25;;;;;26.66;43.55;100856.22;4900263;29;45633;-57
2022/07/25 09:52:59;;;;;;;;;3.00;2.00;;;;;26.66;43.29;100858.88;4900281;29;45878;-56
2022/07/25 09:55:25;;;;;;;;;2.00;2.00;;;;;26.69;43.72;100866.63;4900617;29;45529;-55
2022/07/25 09:57:53;;;;;;;;;2.00;2.00;;;;;26.70;43.41;100860.34;4900100;29;45508;-51
2022/07/25 10:00:22;;;;;;;;;3.00;1.50;;;;;26.71;43.43;100870.00;4899869;29;45826;-54
2022/07/25 10:02:54;;;;;;;;;2.25;2.00;;;;;26.73;43.23;100857.44;4899759;29;45245;-52
2022/07/25 10:05:55;;;;;;;;;2.00;2.00;;;;;26.74;43.33;100872.38;4900192;29;45418;-59
2022/07/25 10:08:21;;;;;;;;;6.00;1.75;;;;;26.75;43.24;100870.59;4899291;29;45721;-47
2022/07/25 10:10:47;;;;;;;;;3.00;3.00;;;;;26.75;43.27;100871.44;4899599;29;45416;-54
2022/07/25 10:13:16;;;;;;;;;2.00;2.00;;;;;26.76;43.25;100867.81;4899998;29;45414;-51
2022/07/25 10:15:44;;;;;;;;;2.75;2.75;;;;;26.78;43.38;100871.22;4882808;29;45337;-56
2022/07/25 10:18:10;;;;;;;;;2.00;2.00;;;;;26.76;43.17;100867.81;4899807;29;45690;-48
2022/07/25 10:20:36;;;;;;;;;3.00;2.00;;;;;26.79;42.99;100877.41;4899856;29;45403;-51
2022/07/25 10:23:03;;;;;;;;;2.75;2.75;;;;;26.80;42.86;100865.75;4899726;29;45488;-61
2022/07/25 10:25:28;;;;;;;;;3.00;3.00;;;;;26.80;43.03;100874.59;4899781;29;45435;-53
2022/07/25 10:28:01;;;;;;;;;3.00;2.00;;;;;26.79;43.07;100875.56;4899440;28;46117;-52
2022/07/25 10:30:34;;;;;;;;;3.75;3.00;;;;;26.80;43.18;100879.91;4899437;29;45713;-47
2022/07/25 10:33:03;;;;;;;;;2.00;2.00;;;;;26.82;42.85;100882.44;4899393;28;45238;-48
2022/07/25 10:35:29;;;;;;;;;2.25;2.25;;;;;26.82;43.14;100888.63;4899845;29;45464;-54
2022/07/25 10:37:56;;;;;;;;;6.25;3.00;;;;;26.82;43.04;100895.72;4899428;29;46527;-54
2022/07/25 10:40:33;;;;;;;;;3.50;2.00;;;;;26.82;43.08;100883.31;4899717;29;45399;-50
2022/07/25 10:43:24;;;;;;;;;3.50;2.25;;;;;26.82;42.84;100896.59;4898080;29;45434;-50
2022/07/25 10:45:51;;;;;;;;;3.00;3.00;;;;;26.83;43.11;100890.31;4888534;28;45492;-50
2022/07/25 10:48:24;;;;;;;;;3.00;3.00;;;;;26.85;42.83;100888.34;4898116;29;45442;-60
2022/07/25 10:50:55;;;;;;;;;4.00;3.00;;;;;26.87;42.82;100895.34;4899166;29;45874;-56
2022/07/25 10:53:32;;;;;;;;;2.25;2.25;;;;;26.85;42.78;100893.66;4899483;29;45248;-54
2022/07/25 10:56:09;;;;;;;;;2.75;2.75;;;;;26.84;42.88;100899.94;4899382;29;45325;-53
2022/07/25 10:58:42;;;;;;;;;4.75;3.00;;;;;26.85;42.88;100901.63;4899169;29;47320;-51
2022/07/25 11:01:08;;;;;;;;;4.25;4.00;;;;;26.85;42.77;100914.94;4899263;29;45284;-51
2022/07/25 11:03:33;;;;;;;;;5.25;3.00;;;;;26.84;43.21;100897.28;4898020;29;45372;-55
2022/07/25 11:05:59;;;;;;;;;4.00;4.00;;;;;26.87;43.22;100906.00;4899124;29;45341;-59
2022/07/25 11:08:32;;;;;;;;;10.00;6.25;;;;;26.88;43.55;100903.22;4899365;29;45614;-58
2022/07/25 11:10:57;;;;;;;;;6.00;3.75;;;;;26.89;43.32;100910.25;4898950;29;45716;-58
2022/07/25 11:13:22;;;;;;;;;4.75;4.75;;;;;26.91;43.17;100912.75;4899553;29;45398;-60
2022/07/25 11:15:48;;;;;;;;;7.75;5.75;;;;;26.92;43.59;100909.13;4899123;29;45631;-61
2022/07/25 11:18:14;;;;;;;;;9.75;5.00;;;;;26.93;43.56;100906.34;4898837;29;46379;-61
2022/07/25 11:20:39;;;;;;;;;12.50;4.50;;;;;26.95;43.61;100906.22;4882820;29;45291;-61